sensor_id;sensor_type;location;lat;lon;timestamp;P1;durP1;ratioP1;P2;durP2;ratioP2
25073;SDS011;13066;52.042;5.648;2023-12-28T00:00:36;3.75;;;2.90;;
25073;SDS011;13066;52.042;5.648;2023-12-28T00:03:04;4.25;;;2.65;;
25073;SDS011;13066;52.042;5.648;2023-12-28T00:05:34;5.53;;;2.85;;
25073;SDS011;13066;52.042;5.648;2023-12-28T00:08:02;4.40;;;2.65;;
25073;SDS011;13066;52.042;5.648;2023-12-28T00:10:30;3.13;;;2.55;;
25073;SDS011;13066;52.042;5.648;2023-12-28T00:12:58;3.85;;;2.72;;
25073;SDS011;13066;52.042;5.648;2023-12-28T00:15:26;5.75;;;3.00;;
25073;SDS011;13066;52.042;5.648;2023-12-28T00:17:54;3.50;;;2.42;;
25073;SDS011;13066;52.042;5.648;2023-12-28T00:20:23;4.25;;;2.85;;
25073;SDS011;13066;52.042;5.648;2023-12-28T00:22:52;5.88;;;2.63;;
25073;SDS011;13066;52.042;5.648;2023-12-28T00:25:20;4.38;;;3.00;;
25073;SDS011;13066;52.042;5.648;2023-12-28T00:27:48;4.70;;;3.00;;
25073;SDS011;13066;52.042;5.648;2023-12-28T00:30:16;5.72;;;3.28;;
25073;SDS011;13066;52.042;5.648;2023-12-28T00:32:45;4.40;;;2.85;;
25073;SDS011;13066;52.042;5.648;2023-12-28T00:35:13;3.72;;;2.65;;
25073;SDS011;13066;52.042;5.648;2023-12-28T00:37:41;4.47;;;3.10;;
25073;SDS011;13066;52.042;5.648;2023-12-28T00:40:12;5.57;;;2.83;;
25073;SDS011;13066;52.042;5.648;2023-12-28T00:42:39;7.65;;;3.30;;
25073;SDS011;13066;52.042;5.648;2023-12-28T00:45:08;3.25;;;2.78;;
25073;SDS011;13066;52.042;5.648;2023-12-28T00:47:37;6.57;;;3.17;;
25073;SDS011;13066;52.042;5.648;2023-12-28T00:50:05;4.60;;;2.88;;
25073;SDS011;13066;52.042;5.648;2023-12-28T00:52:34;4.63;;;2.88;;
25073;SDS011;13066;52.042;5.648;2023-12-28T00:55:02;5.07;;;3.00;;
25073;SDS011;13066;52.042;5.648;2023-12-28T00:57:33;6.13;;;3.20;;
25073;SDS011;13066;52.042;5.648;2023-12-28T01:00:01;4.13;;;2.83;;
25073;SDS011;13066;52.042;5.648;2023-12-28T01:02:29;5.28;;;3.15;;
25073;SDS011;13066;52.042;5.648;2023-12-28T01:04:57;3.85;;;2.92;;
25073;SDS011;13066;52.042;5.648;2023-12-28T01:07:25;3.75;;;2.40;;
25073;SDS011;13066;52.042;5.648;2023-12-28T01:09:53;5.57;;;2.88;;
25073;SDS011;13066;52.042;5.648;2023-12-28T01:12:23;3.70;;;2.50;;
25073;SDS011;13066;52.042;5.648;2023-12-28T01:14:53;3.78;;;2.58;;
25073;SDS011;13066;52.042;5.648;2023-12-28T01:17:21;7.03;;;3.08;;
25073;SDS011;13066;52.042;5.648;2023-12-28T01:19:49;5.28;;;2.90;;
25073;SDS011;13066;52.042;5.648;2023-12-28T01:22:18;4.45;;;2.60;;
25073;SDS011;13066;52.042;5.648;2023-12-28T01:24:46;5.43;;;2.78;;
25073;SDS011;13066;52.042;5.648;2023-12-28T01:27:16;4.85;;;2.55;;
25073;SDS011;13066;52.042;5.648;2023-12-28T01:29:44;3.75;;;2.70;;
25073;SDS011;13066;52.042;5.648;2023-12-28T01:32:13;3.95;;;2.53;;
25073;SDS011;13066;52.042;5.648;2023-12-28T01:34:41;3.70;;;2.55;;
25073;SDS011;13066;52.042;5.648;2023-12-28T01:37:10;5.40;;;2.80;;
25073;SDS011;13066;52.042;5.648;2023-12-28T01:39:38;4.50;;;2.80;;
25073;SDS011;13066;52.042;5.648;2023-12-28T01:42:07;3.78;;;2.72;;
25073;SDS011;13066;52.042;5.648;2023-12-28T01:44:35;5.57;;;2.60;;
25073;SDS011;13066;52.042;5.648;2023-12-28T01:47:03;4.18;;;2.78;;
25073;SDS011;13066;52.042;5.648;2023-12-28T01:49:33;5.38;;;2.83;;
25073;SDS011;13066;52.042;5.648;2023-12-28T01:52:03;4.68;;;2.42;;
25073;SDS011;13066;52.042;5.648;2023-12-28T01:54:32;6.30;;;2.70;;
25073;SDS011;13066;52.042;5.648;2023-12-28T01:57:00;4.78;;;2.85;;
25073;SDS011;13066;52.042;5.648;2023-12-28T01:59:29;5.50;;;2.78;;
25073;SDS011;13066;52.042;5.648;2023-12-28T02:01:58;4.10;;;3.00;;
25073;SDS011;13066;52.042;5.648;2023-12-28T02:04:26;5.55;;;2.70;;
25073;SDS011;13066;52.042;5.648;2023-12-28T02:06:57;6.47;;;2.30;;
25073;SDS011;13066;52.042;5.648;2023-12-28T02:09:27;4.72;;;2.80;;
25073;SDS011;13066;52.042;5.648;2023-12-28T02:11:55;5.20;;;3.13;;
25073;SDS011;13066;52.042;5.648;2023-12-28T02:14:23;4.70;;;2.92;;
25073;SDS011;13066;52.042;5.648;2023-12-28T02:16:54;4.03;;;2.78;;
25073;SDS011;13066;52.042;5.648;2023-12-28T02:19:25;4.60;;;2.85;;
25073;SDS011;13066;52.042;5.648;2023-12-28T02:22:00;6.10;;;3.08;;
25073;SDS011;13066;52.042;5.648;2023-12-28T02:24:31;3.75;;;2.58;;
25073;SDS011;13066;52.042;5.648;2023-12-28T02:27:00;5.93;;;2.80;;
25073;SDS011;13066;52.042;5.648;2023-12-28T02:29:29;6.80;;;3.08;;
25073;SDS011;13066;52.042;5.648;2023-12-28T02:31:58;4.68;;;2.83;;
25073;SDS011;13066;52.042;5.648;2023-12-28T02:34:29;5.35;;;2.60;;
25073;SDS011;13066;52.042;5.648;2023-12-28T02:37:02;6.88;;;2.90;;
25073;SDS011;13066;52.042;5.648;2023-12-28T02:39:31;5.85;;;3.00;;
25073;SDS011;13066;52.042;5.648;2023-12-28T02:42:00;4.93;;;2.90;;
25073;SDS011;13066;52.042;5.648;2023-12-28T02:44:30;4.60;;;2.92;;
25073;SDS011;13066;52.042;5.648;2023-12-28T02:46:57;3.90;;;2.70;;
25073;SDS011;13066;52.042;5.648;2023-12-28T02:49:25;5.55;;;2.90;;
25073;SDS011;13066;52.042;5.648;2023-12-28T02:51:54;5.55;;;2.55;;
25073;SDS011;13066;52.042;5.648;2023-12-28T02:54:22;5.28;;;2.70;;
25073;SDS011;13066;52.042;5.648;2023-12-28T02:56:50;4.72;;;2.83;;
25073;SDS011;13066;52.042;5.648;2023-12-28T02:59:19;5.28;;;2.70;;
25073;SDS011;13066;52.042;5.648;2023-12-28T03:01:48;6.57;;;3.00;;
25073;SDS011;13066;52.042;5.648;2023-12-28T03:04:17;4.40;;;2.60;;
25073;SDS011;13066;52.042;5.648;2023-12-28T03:06:46;5.47;;;2.50;;
25073;SDS011;13066;52.042;5.648;2023-12-28T03:09:15;5.30;;;2.67;;
25073;SDS011;13066;52.042;5.648;2023-12-28T03:11:43;4.88;;;2.58;;
25073;SDS011;13066;52.042;5.648;2023-12-28T03:14:11;4.90;;;2.58;;
25073;SDS011;13066;52.042;5.648;2023-12-28T03:16:41;6.05;;;2.60;;
25073;SDS011;13066;52.042;5.648;2023-12-28T03:19:09;4.25;;;2.47;;
25073;SDS011;13066;52.042;5.648;2023-12-28T03:21:38;4.82;;;2.17;;
25073;SDS011;13066;52.042;5.648;2023-12-28T03:24:06;6.88;;;2.80;;
25073;SDS011;13066;52.042;5.648;2023-12-28T03:26:37;5.63;;;2.63;;
25073;SDS011;13066;52.042;5.648;2023-12-28T03:29:05;7.50;;;2.72;;
25073;SDS011;13066;52.042;5.648;2023-12-28T03:31:38;4.78;;;2.28;;
25073;SDS011;13066;52.042;5.648;2023-12-28T03:34:08;5.53;;;2.60;;
25073;SDS011;13066;52.042;5.648;2023-12-28T03:36:36;5.78;;;2.33;;
25073;SDS011;13066;52.042;5.648;2023-12-28T03:39:05;4.97;;;2.40;;
25073;SDS011;13066;52.042;5.648;2023-12-28T03:41:33;3.53;;;2.25;;
25073;SDS011;13066;52.042;5.648;2023-12-28T03:44:01;10.50;;;2.55;;
25073;SDS011;13066;52.042;5.648;2023-12-28T03:46:29;5.15;;;2.45;;
25073;SDS011;13066;52.042;5.648;2023-12-28T03:48:58;4.95;;;2.30;;
25073;SDS011;13066;52.042;5.648;2023-12-28T03:51:28;9.55;;;2.70;;
25073;SDS011;13066;52.042;5.648;2023-12-28T03:53:56;5.97;;;2.08;;
25073;SDS011;13066;52.042;5.648;2023-12-28T03:56:24;6.82;;;2.63;;
25073;SDS011;13066;52.042;5.648;2023-12-28T03:58:53;8.05;;;2.67;;
25073;SDS011;13066;52.042;5.648;2023-12-28T04:01:21;7.22;;;2.78;;
25073;SDS011;13066;52.042;5.648;2023-12-28T04:03:50;8.13;;;2.22;;
25073;SDS011;13066;52.042;5.648;2023-12-28T04:06:18;7.85;;;2.55;;
25073;SDS011;13066;52.042;5.648;2023-12-28T04:08:47;6.75;;;2.42;;
25073;SDS011;13066;52.042;5.648;2023-12-28T04:11:16;5.80;;;2.65;;
25073;SDS011;13066;52.042;5.648;2023-12-28T04:13:44;5.63;;;2.22;;
25073;SDS011;13066;52.042;5.648;2023-12-28T04:16:12;7.15;;;2.47;;
25073;SDS011;13066;52.042;5.648;2023-12-28T04:18:41;5.15;;;2.45;;
25073;SDS011;13066;52.042;5.648;2023-12-28T04:21:09;6.55;;;2.42;;
25073;SDS011;13066;52.042;5.648;2023-12-28T04:23:39;7.68;;;2.30;;
25073;SDS011;13066;52.042;5.648;2023-12-28T04:26:09;6.07;;;2.65;;
25073;SDS011;13066;52.042;5.648;2023-12-28T04:28:37;7.30;;;2.55;;
25073;SDS011;13066;52.042;5.648;2023-12-28T04:31:06;9.05;;;2.72;;
25073;SDS011;13066;52.042;5.648;2023-12-28T04:33:35;5.88;;;2.40;;
25073;SDS011;13066;52.042;5.648;2023-12-28T04:36:03;7.38;;;2.60;;
25073;SDS011;13066;52.042;5.648;2023-12-28T04:38:32;7.35;;;2.63;;
25073;SDS011;13066;52.042;5.648;2023-12-28T04:41:01;8.38;;;2.53;;
25073;SDS011;13066;52.042;5.648;2023-12-28T04:43:30;8.05;;;2.50;;
25073;SDS011;13066;52.042;5.648;2023-12-28T04:46:02;7.93;;;2.35;;
25073;SDS011;13066;52.042;5.648;2023-12-28T04:48:31;9.57;;;3.10;;
25073;SDS011;13066;52.042;5.648;2023-12-28T04:51:01;12.25;;;3.25;;
25073;SDS011;13066;52.042;5.648;2023-12-28T04:53:30;10.95;;;3.00;;
25073;SDS011;13066;52.042;5.648;2023-12-28T04:55:58;6.50;;;2.42;;
25073;SDS011;13066;52.042;5.648;2023-12-28T04:58:26;12.13;;;2.83;;
25073;SDS011;13066;52.042;5.648;2023-12-28T05:00:56;6.18;;;2.35;;
25073;SDS011;13066;52.042;5.648;2023-12-28T05:03:24;13.63;;;3.40;;
25073;SDS011;13066;52.042;5.648;2023-12-28T05:05:52;8.25;;;2.40;;
25073;SDS011;13066;52.042;5.648;2023-12-28T05:08:20;10.05;;;2.78;;
25073;SDS011;13066;52.042;5.648;2023-12-28T05:10:48;10.32;;;2.53;;
25073;SDS011;13066;52.042;5.648;2023-12-28T05:13:16;8.57;;;2.65;;
25073;SDS011;13066;52.042;5.648;2023-12-28T05:15:44;9.10;;;2.53;;
25073;SDS011;13066;52.042;5.648;2023-12-28T05:18:13;8.15;;;2.55;;
25073;SDS011;13066;52.042;5.648;2023-12-28T05:20:42;8.55;;;2.40;;
25073;SDS011;13066;52.042;5.648;2023-12-28T05:23:10;12.77;;;2.80;;
25073;SDS011;13066;52.042;5.648;2023-12-28T05:25:38;11.23;;;3.28;;
25073;SDS011;13066;52.042;5.648;2023-12-28T05:28:06;6.45;;;2.40;;
25073;SDS011;13066;52.042;5.648;2023-12-28T05:30:34;11.00;;;2.90;;
25073;SDS011;13066;52.042;5.648;2023-12-28T05:33:03;8.25;;;3.08;;
25073;SDS011;13066;52.042;5.648;2023-12-28T05:35:33;10.35;;;2.92;;
25073;SDS011;13066;52.042;5.648;2023-12-28T05:38:01;10.65;;;3.00;;
25073;SDS011;13066;52.042;5.648;2023-12-28T05:40:30;11.85;;;2.83;;
25073;SDS011;13066;52.042;5.648;2023-12-28T05:42:58;9.13;;;2.53;;
25073;SDS011;13066;52.042;5.648;2023-12-28T05:45:26;10.02;;;2.72;;
25073;SDS011;13066;52.042;5.648;2023-12-28T05:47:54;11.75;;;2.85;;
25073;SDS011;13066;52.042;5.648;2023-12-28T05:50:22;11.80;;;2.67;;
25073;SDS011;13066;52.042;5.648;2023-12-28T05:52:52;9.80;;;2.67;;
25073;SDS011;13066;52.042;5.648;2023-12-28T05:55:20;12.18;;;2.92;;
25073;SDS011;13066;52.042;5.648;2023-12-28T05:57:48;11.90;;;3.28;;
25073;SDS011;13066;52.042;5.648;2023-12-28T06:00:17;14.13;;;3.45;;
25073;SDS011;13066;52.042;5.648;2023-12-28T06:02:46;10.02;;;3.08;;
25073;SDS011;13066;52.042;5.648;2023-12-28T06:05:18;12.98;;;2.90;;
25073;SDS011;13066;52.042;5.648;2023-12-28T06:07:46;9.93;;;3.13;;
25073;SDS011;13066;52.042;5.648;2023-12-28T06:10:15;12.25;;;3.20;;
25073;SDS011;13066;52.042;5.648;2023-12-28T06:12:43;11.63;;;3.53;;
25073;SDS011;13066;52.042;5.648;2023-12-28T06:15:11;12.48;;;3.22;;
25073;SDS011;13066;52.042;5.648;2023-12-28T06:17:40;13.98;;;2.90;;
25073;SDS011;13066;52.042;5.648;2023-12-28T06:20:08;11.07;;;3.10;;
25073;SDS011;13066;52.042;5.648;2023-12-28T06:22:37;11.27;;;3.05;;
25073;SDS011;13066;52.042;5.648;2023-12-28T06:25:05;11.68;;;3.30;;
25073;SDS011;13066;52.042;5.648;2023-12-28T06:27:35;11.88;;;2.78;;
25073;SDS011;13066;52.042;5.648;2023-12-28T06:30:04;12.32;;;3.03;;
25073;SDS011;13066;52.042;5.648;2023-12-28T06:32:33;11.75;;;3.08;;
25073;SDS011;13066;52.042;5.648;2023-12-28T06:35:01;7.93;;;2.80;;
25073;SDS011;13066;52.042;5.648;2023-12-28T06:37:30;8.98;;;2.92;;
25073;SDS011;13066;52.042;5.648;2023-12-28T06:39:57;11.63;;;3.42;;
25073;SDS011;13066;52.042;5.648;2023-12-28T06:42:26;10.80;;;3.05;;
25073;SDS011;13066;52.042;5.648;2023-12-28T06:44:55;14.38;;;3.83;;
25073;SDS011;13066;52.042;5.648;2023-12-28T06:47:23;12.55;;;3.53;;
25073;SDS011;13066;52.042;5.648;2023-12-28T06:49:52;12.07;;;2.85;;
25073;SDS011;13066;52.042;5.648;2023-12-28T06:52:20;11.95;;;3.25;;
25073;SDS011;13066;52.042;5.648;2023-12-28T06:54:50;15.15;;;3.72;;
25073;SDS011;13066;52.042;5.648;2023-12-28T06:57:18;14.15;;;3.25;;
25073;SDS011;13066;52.042;5.648;2023-12-28T06:59:46;12.65;;;3.20;;
25073;SDS011;13066;52.042;5.648;2023-12-28T07:02:15;12.40;;;3.08;;
25073;SDS011;13066;52.042;5.648;2023-12-28T07:04:43;11.38;;;3.15;;
25073;SDS011;13066;52.042;5.648;2023-12-28T07:07:10;14.30;;;3.92;;
25073;SDS011;13066;52.042;5.648;2023-12-28T07:09:38;10.60;;;3.22;;
25073;SDS011;13066;52.042;5.648;2023-12-28T07:12:06;16.65;;;3.47;;
25073;SDS011;13066;52.042;5.648;2023-12-28T07:14:35;12.88;;;3.20;;
25073;SDS011;13066;52.042;5.648;2023-12-28T07:17:03;13.68;;;3.42;;
25073;SDS011;13066;52.042;5.648;2023-12-28T07:19:32;15.48;;;3.20;;
25073;SDS011;13066;52.042;5.648;2023-12-28T07:22:01;11.73;;;3.80;;
25073;SDS011;13066;52.042;5.648;2023-12-28T07:24:29;17.08;;;3.80;;
25073;SDS011;13066;52.042;5.648;2023-12-28T07:26:57;12.75;;;3.53;;
25073;SDS011;13066;52.042;5.648;2023-12-28T07:29:25;14.30;;;3.45;;
25073;SDS011;13066;52.042;5.648;2023-12-28T07:31:53;11.95;;;3.05;;
25073;SDS011;13066;52.042;5.648;2023-12-28T07:34:21;11.57;;;3.67;;
25073;SDS011;13066;52.042;5.648;2023-12-28T07:36:51;14.05;;;3.47;;
25073;SDS011;13066;52.042;5.648;2023-12-28T07:39:19;11.88;;;3.38;;
25073;SDS011;13066;52.042;5.648;2023-12-28T07:41:47;19.88;;;4.22;;
25073;SDS011;13066;52.042;5.648;2023-12-28T07:44:16;14.23;;;3.88;;
25073;SDS011;13066;52.042;5.648;2023-12-28T07:46:45;13.40;;;3.78;;
25073;SDS011;13066;52.042;5.648;2023-12-28T07:49:13;13.20;;;3.35;;
25073;SDS011;13066;52.042;5.648;2023-12-28T07:51:41;14.05;;;3.58;;
25073;SDS011;13066;52.042;5.648;2023-12-28T07:54:10;10.40;;;3.28;;
25073;SDS011;13066;52.042;5.648;2023-12-28T07:56:39;13.77;;;3.53;;
25073;SDS011;13066;52.042;5.648;2023-12-28T07:59:06;14.57;;;3.67;;
25073;SDS011;13066;52.042;5.648;2023-12-28T08:01:35;16.15;;;3.78;;
25073;SDS011;13066;52.042;5.648;2023-12-28T08:04:04;14.77;;;3.55;;
25073;SDS011;13066;52.042;5.648;2023-12-28T08:06:32;17.20;;;3.80;;
25073;SDS011;13066;52.042;5.648;2023-12-28T08:09:00;18.13;;;3.55;;
25073;SDS011;13066;52.042;5.648;2023-12-28T08:11:30;15.35;;;3.67;;
25073;SDS011;13066;52.042;5.648;2023-12-28T08:13:58;15.55;;;4.03;;
25073;SDS011;13066;52.042;5.648;2023-12-28T08:16:26;14.07;;;3.40;;
25073;SDS011;13066;52.042;5.648;2023-12-28T08:18:54;13.40;;;3.72;;
25073;SDS011;13066;52.042;5.648;2023-12-28T08:21:22;14.52;;;3.60;;
25073;SDS011;13066;52.042;5.648;2023-12-28T08:23:50;15.27;;;4.00;;
25073;SDS011;13066;52.042;5.648;2023-12-28T08:26:18;13.38;;;3.67;;
25073;SDS011;13066;52.042;5.648;2023-12-28T08:28:47;12.25;;;4.13;;
25073;SDS011;13066;52.042;5.648;2023-12-28T08:31:15;19.08;;;4.82;;
25073;SDS011;13066;52.042;5.648;2023-12-28T08:33:43;12.80;;;3.75;;
25073;SDS011;13066;52.042;5.648;2023-12-28T08:36:12;13.35;;;4.20;;
25073;SDS011;13066;52.042;5.648;2023-12-28T08:38:40;18.23;;;5.40;;
25073;SDS011;13066;52.042;5.648;2023-12-28T08:41:17;14.90;;;4.15;;
25073;SDS011;13066;52.042;5.648;2023-12-28T08:43:45;17.63;;;4.32;;
25073;SDS011;13066;52.042;5.648;2023-12-28T08:46:15;13.38;;;4.28;;
25073;SDS011;13066;52.042;5.648;2023-12-28T08:48:43;18.38;;;4.78;;
25073;SDS011;13066;52.042;5.648;2023-12-28T08:51:11;21.05;;;5.50;;
25073;SDS011;13066;52.042;5.648;2023-12-28T08:53:41;18.75;;;4.75;;
25073;SDS011;13066;52.042;5.648;2023-12-28T08:56:12;19.33;;;4.30;;
25073;SDS011;13066;52.042;5.648;2023-12-28T08:58:41;12.98;;;4.05;;
25073;SDS011;13066;52.042;5.648;2023-12-28T09:01:16;11.70;;;3.78;;
25073;SDS011;13066;52.042;5.648;2023-12-28T09:03:46;16.40;;;4.78;;
25073;SDS011;13066;52.042;5.648;2023-12-28T09:06:15;15.15;;;3.85;;
25073;SDS011;13066;52.042;5.648;2023-12-28T09:08:44;18.20;;;3.95;;
25073;SDS011;13066;52.042;5.648;2023-12-28T09:11:14;15.00;;;4.28;;
25073;SDS011;13066;52.042;5.648;2023-12-28T09:13:42;17.63;;;4.15;;
25073;SDS011;13066;52.042;5.648;2023-12-28T09:16:11;12.80;;;3.83;;
25073;SDS011;13066;52.042;5.648;2023-12-28T09:18:42;20.52;;;3.83;;
25073;SDS011;13066;52.042;5.648;2023-12-28T09:21:10;16.88;;;3.78;;
25073;SDS011;13066;52.042;5.648;2023-12-28T09:23:39;17.65;;;3.90;;
25073;SDS011;13066;52.042;5.648;2023-12-28T09:26:07;14.48;;;3.50;;
25073;SDS011;13066;52.042;5.648;2023-12-28T09:28:35;13.73;;;3.28;;
25073;SDS011;13066;52.042;5.648;2023-12-28T09:31:03;14.23;;;4.18;;
25073;SDS011;13066;52.042;5.648;2023-12-28T09:33:32;14.43;;;4.43;;
25073;SDS011;13066;52.042;5.648;2023-12-28T09:36:04;13.88;;;4.00;;
25073;SDS011;13066;52.042;5.648;2023-12-28T09:38:32;12.20;;;3.47;;
25073;SDS011;13066;52.042;5.648;2023-12-28T09:41:03;14.00;;;3.85;;
25073;SDS011;13066;52.042;5.648;2023-12-28T09:43:37;14.95;;;4.50;;
25073;SDS011;13066;52.042;5.648;2023-12-28T09:46:09;17.27;;;4.68;;
25073;SDS011;13066;52.042;5.648;2023-12-28T09:48:38;13.15;;;3.80;;
25073;SDS011;13066;52.042;5.648;2023-12-28T09:51:08;14.48;;;3.65;;
25073;SDS011;13066;52.042;5.648;2023-12-28T09:53:41;13.90;;;3.97;;
25073;SDS011;13066;52.042;5.648;2023-12-28T09:56:11;17.23;;;3.70;;
25073;SDS011;13066;52.042;5.648;2023-12-28T09:58:40;14.23;;;3.70;;
25073;SDS011;13066;52.042;5.648;2023-12-28T10:01:10;15.23;;;3.85;;
25073;SDS011;13066;52.042;5.648;2023-12-28T10:03:38;16.75;;;3.88;;
25073;SDS011;13066;52.042;5.648;2023-12-28T10:06:08;17.08;;;3.67;;
25073;SDS011;13066;52.042;5.648;2023-12-28T10:08:36;12.55;;;3.42;;
25073;SDS011;13066;52.042;5.648;2023-12-28T10:11:04;15.75;;;3.90;;
25073;SDS011;13066;52.042;5.648;2023-12-28T10:13:33;15.57;;;3.75;;
25073;SDS011;13066;52.042;5.648;2023-12-28T10:16:01;18.00;;;3.60;;
25073;SDS011;13066;52.042;5.648;2023-12-28T10:18:30;15.50;;;3.70;;
25073;SDS011;13066;52.042;5.648;2023-12-28T10:20:58;13.18;;;3.50;;
25073;SDS011;13066;52.042;5.648;2023-12-28T10:23:27;12.27;;;3.08;;
25073;SDS011;13066;52.042;5.648;2023-12-28T10:25:56;14.50;;;3.83;;
25073;SDS011;13066;52.042;5.648;2023-12-28T10:28:24;13.13;;;3.83;;
25073;SDS011;13066;52.042;5.648;2023-12-28T10:30:54;16.75;;;5.65;;
25073;SDS011;13066;52.042;5.648;2023-12-28T10:33:23;14.02;;;3.58;;
25073;SDS011;13066;52.042;5.648;2023-12-28T10:35:52;13.07;;;3.88;;
25073;SDS011;13066;52.042;5.648;2023-12-28T10:38:23;11.35;;;3.72;;
25073;SDS011;13066;52.042;5.648;2023-12-28T10:40:54;15.27;;;4.50;;
25073;SDS011;13066;52.042;5.648;2023-12-28T10:43:23;14.63;;;4.03;;
25073;SDS011;13066;52.042;5.648;2023-12-28T10:45:52;15.05;;;3.97;;
25073;SDS011;13066;52.042;5.648;2023-12-28T10:48:24;12.43;;;3.53;;
25073;SDS011;13066;52.042;5.648;2023-12-28T10:50:57;14.13;;;4.05;;
25073;SDS011;13066;52.042;5.648;2023-12-28T10:53:30;15.85;;;4.55;;
25073;SDS011;13066;52.042;5.648;2023-12-28T10:56:13;14.77;;;3.65;;
25073;SDS011;13066;52.042;5.648;2023-12-28T10:58:49;14.27;;;3.60;;
25073;SDS011;13066;52.042;5.648;2023-12-28T11:01:20;13.40;;;4.43;;
25073;SDS011;13066;52.042;5.648;2023-12-28T11:03:52;16.10;;;4.33;;
25073;SDS011;13066;52.042;5.648;2023-12-28T11:06:26;16.05;;;4.30;;
25073;SDS011;13066;52.042;5.648;2023-12-28T11:08:55;17.20;;;4.13;;
25073;SDS011;13066;52.042;5.648;2023-12-28T11:11:26;15.65;;;4.32;;
25073;SDS011;13066;52.042;5.648;2023-12-28T11:13:55;13.63;;;4.65;;
25073;SDS011;13066;52.042;5.648;2023-12-28T11:16:23;14.82;;;3.83;;
25073;SDS011;13066;52.042;5.648;2023-12-28T11:18:51;17.83;;;3.88;;
25073;SDS011;13066;52.042;5.648;2023-12-28T11:21:20;15.35;;;4.07;;
25073;SDS011;13066;52.042;5.648;2023-12-28T11:23:49;18.50;;;4.15;;
25073;SDS011;13066;52.042;5.648;2023-12-28T11:26:18;20.67;;;5.10;;
25073;SDS011;13066;52.042;5.648;2023-12-28T11:28:48;16.85;;;5.00;;
25073;SDS011;13066;52.042;5.648;2023-12-28T11:31:16;14.85;;;3.83;;
25073;SDS011;13066;52.042;5.648;2023-12-28T11:33:45;14.23;;;4.10;;
25073;SDS011;13066;52.042;5.648;2023-12-28T11:36:19;15.35;;;4.82;;
25073;SDS011;13066;52.042;5.648;2023-12-28T11:38:50;17.02;;;4.07;;
25073;SDS011;13066;52.042;5.648;2023-12-28T11:41:21;17.90;;;4.20;;
25073;SDS011;13066;52.042;5.648;2023-12-28T11:43:54;15.45;;;3.53;;
25073;SDS011;13066;52.042;5.648;2023-12-28T11:46:22;17.10;;;4.32;;
25073;SDS011;13066;52.042;5.648;2023-12-28T11:48:51;14.85;;;3.95;;
25073;SDS011;13066;52.042;5.648;2023-12-28T11:51:19;16.40;;;4.20;;
25073;SDS011;13066;52.042;5.648;2023-12-28T11:53:47;12.85;;;3.83;;
25073;SDS011;13066;52.042;5.648;2023-12-28T11:56:16;13.20;;;3.55;;
25073;SDS011;13066;52.042;5.648;2023-12-28T11:58:44;14.85;;;4.05;;
25073;SDS011;13066;52.042;5.648;2023-12-28T12:01:15;14.73;;;4.10;;
25073;SDS011;13066;52.042;5.648;2023-12-28T12:03:43;14.70;;;4.22;;
25073;SDS011;13066;52.042;5.648;2023-12-28T12:06:12;21.08;;;4.93;;
25073;SDS011;13066;52.042;5.648;2023-12-28T12:08:40;16.52;;;4.72;;
25073;SDS011;13066;52.042;5.648;2023-12-28T12:11:08;14.38;;;3.83;;
25073;SDS011;13066;52.042;5.648;2023-12-28T12:13:37;12.93;;;4.05;;
25073;SDS011;13066;52.042;5.648;2023-12-28T12:16:05;14.32;;;4.15;;
25073;SDS011;13066;52.042;5.648;2023-12-28T12:18:36;14.35;;;3.95;;
25073;SDS011;13066;52.042;5.648;2023-12-28T12:21:04;15.20;;;4.10;;
25073;SDS011;13066;52.042;5.648;2023-12-28T12:23:33;13.93;;;4.47;;
25073;SDS011;13066;52.042;5.648;2023-12-28T12:26:04;20.67;;;4.68;;
25073;SDS011;13066;52.042;5.648;2023-12-28T12:28:32;14.30;;;3.92;;
25073;SDS011;13066;52.042;5.648;2023-12-28T12:31:00;16.25;;;4.50;;
25073;SDS011;13066;52.042;5.648;2023-12-28T12:33:29;14.05;;;3.47;;
25073;SDS011;13066;52.042;5.648;2023-12-28T12:36:00;15.77;;;4.60;;
25073;SDS011;13066;52.042;5.648;2023-12-28T12:38:29;12.70;;;3.40;;
25073;SDS011;13066;52.042;5.648;2023-12-28T12:40:58;12.43;;;3.63;;
25073;SDS011;13066;52.042;5.648;2023-12-28T12:43:26;13.27;;;3.67;;
25073;SDS011;13066;52.042;5.648;2023-12-28T12:45:55;13.50;;;4.32;;
25073;SDS011;13066;52.042;5.648;2023-12-28T12:48:23;13.95;;;4.03;;
25073;SDS011;13066;52.042;5.648;2023-12-28T12:50:52;13.88;;;3.50;;
25073;SDS011;13066;52.042;5.648;2023-12-28T12:53:21;12.77;;;3.72;;
25073;SDS011;13066;52.042;5.648;2023-12-28T12:55:53;14.45;;;3.83;;
25073;SDS011;13066;52.042;5.648;2023-12-28T12:58:22;12.93;;;3.90;;
25073;SDS011;13066;52.042;5.648;2023-12-28T13:00:50;15.60;;;4.45;;
25073;SDS011;13066;52.042;5.648;2023-12-28T13:03:19;11.25;;;3.60;;
25073;SDS011;13066;52.042;5.648;2023-12-28T13:05:47;17.98;;;4.40;;
25073;SDS011;13066;52.042;5.648;2023-12-28T13:08:15;13.30;;;4.05;;
25073;SDS011;13066;52.042;5.648;2023-12-28T13:10:45;16.65;;;4.20;;
25073;SDS011;13066;52.042;5.648;2023-12-28T13:13:13;16.90;;;3.90;;
25073;SDS011;13066;52.042;5.648;2023-12-28T13:15:41;16.27;;;3.92;;
25073;SDS011;13066;52.042;5.648;2023-12-28T13:18:09;13.50;;;4.03;;
25073;SDS011;13066;52.042;5.648;2023-12-28T13:20:37;16.67;;;4.10;;
25073;SDS011;13066;52.042;5.648;2023-12-28T13:23:05;18.48;;;3.95;;
25073;SDS011;13066;52.042;5.648;2023-12-28T13:25:34;17.80;;;4.30;;
25073;SDS011;13066;52.042;5.648;2023-12-28T13:28:04;17.27;;;4.03;;
25073;SDS011;13066;52.042;5.648;2023-12-28T13:30:32;13.00;;;3.90;;
25073;SDS011;13066;52.042;5.648;2023-12-28T13:33:03;17.10;;;4.05;;
25073;SDS011;13066;52.042;5.648;2023-12-28T13:35:32;14.43;;;4.10;;
25073;SDS011;13066;52.042;5.648;2023-12-28T13:38:00;14.05;;;4.63;;
25073;SDS011;13066;52.042;5.648;2023-12-28T13:40:29;19.05;;;4.53;;
25073;SDS011;13066;52.042;5.648;2023-12-28T13:42:57;19.63;;;4.32;;
25073;SDS011;13066;52.042;5.648;2023-12-28T13:45:27;14.95;;;4.28;;
25073;SDS011;13066;52.042;5.648;2023-12-28T13:47:56;19.25;;;4.05;;
25073;SDS011;13066;52.042;5.648;2023-12-28T13:50:24;15.70;;;3.85;;
25073;SDS011;13066;52.042;5.648;2023-12-28T13:52:52;16.55;;;4.18;;
25073;SDS011;13066;52.042;5.648;2023-12-28T13:55:20;17.55;;;4.70;;
25073;SDS011;13066;52.042;5.648;2023-12-28T13:57:48;17.70;;;4.05;;
25073;SDS011;13066;52.042;5.648;2023-12-28T14:00:16;14.38;;;3.80;;
25073;SDS011;13066;52.042;5.648;2023-12-28T14:02:47;13.15;;;3.80;;
25073;SDS011;13066;52.042;5.648;2023-12-28T14:05:15;15.13;;;3.90;;
25073;SDS011;13066;52.042;5.648;2023-12-28T14:07:43;13.18;;;3.80;;
25073;SDS011;13066;52.042;5.648;2023-12-28T14:10:11;15.98;;;4.07;;
25073;SDS011;13066;52.042;5.648;2023-12-28T14:12:39;14.60;;;3.70;;
25073;SDS011;13066;52.042;5.648;2023-12-28T14:15:08;19.35;;;4.50;;
25073;SDS011;13066;52.042;5.648;2023-12-28T14:17:37;17.98;;;4.35;;
25073;SDS011;13066;52.042;5.648;2023-12-28T14:20:08;15.23;;;4.60;;
25073;SDS011;13066;52.042;5.648;2023-12-28T14:22:38;15.18;;;4.05;;
25073;SDS011;13066;52.042;5.648;2023-12-28T14:25:07;15.57;;;4.28;;
25073;SDS011;13066;52.042;5.648;2023-12-28T14:27:38;13.35;;;4.18;;
25073;SDS011;13066;52.042;5.648;2023-12-28T14:30:07;20.35;;;4.88;;
25073;SDS011;13066;52.042;5.648;2023-12-28T14:32:37;15.35;;;4.03;;
25073;SDS011;13066;52.042;5.648;2023-12-28T14:35:08;19.52;;;4.80;;
25073;SDS011;13066;52.042;5.648;2023-12-28T14:37:37;14.57;;;4.95;;
25073;SDS011;13066;52.042;5.648;2023-12-28T14:40:06;17.70;;;4.85;;
25073;SDS011;13066;52.042;5.648;2023-12-28T14:42:38;14.85;;;4.63;;
25073;SDS011;13066;52.042;5.648;2023-12-28T14:45:06;16.83;;;4.53;;
25073;SDS011;13066;52.042;5.648;2023-12-28T14:47:35;16.17;;;5.30;;